Time;durP1;ratioP1;P1;durP2;ratioP2;P2;SDS_P1;SDS_P2;PMS_P1;PMS_P2;Temp;Humidity;BMP_temperature;BMP_pressure;BME280_temperature;BME280_humidity;BME280_pressure;Samples;Min_cycle;Max_cycle;Signal;HPM_P1;HPM_P2
2023/04/15 00:01:46;;;;;;;7.88;3.67;;;;;6.40;97601.00;;;;5052085;28;20110;-58
2023/04/15 00:04:13;;;;;;;5.95;3.05;;;;;6.40;97589.00;;;;5051135;28;20049;-60
2023/04/15 00:06:40;;;;;;;6.03;3.05;;;;;6.40;97591.00;;;;5052579;28;20075;-59
2023/04/15 00:09:07;;;;;;;6.45;2.90;;;;;6.40;97599.00;;;;5051928;28;20041;-58
2023/04/15 00:11:33;;;;;;;7.00;2.85;;;;;6.40;97598.00;;;;5051934;28;20077;-59
2023/04/15 00:14:00;;;;;;;5.90;2.70;;;;;6.40;97590.00;;;;5051933;28;20072;-60
2023/04/15 00:16:27;;;;;;;5.03;2.75;;;;;6.40;97585.00;;;;5051938;28;20045;-60
2023/04/15 00:18:53;;;;;;;5.07;3.10;;;;;6.40;97579.00;;;;5050414;28;20067;-60
2023/04/15 00:21:20;;;;;;;5.22;2.83;;;;;6.40;97584.00;;;;5051713;28;20041;-60
2023/04/15 00:23:51;;;;;;;4.38;2.70;;;;;6.40;97582.00;;;;5051826;28;20421;-59
2023/04/15 00:26:18;;;;;;;5.78;3.45;;;;;6.30;97586.00;;;;5051798;28;20056;-60
2023/04/15 00:28:47;;;;;;;2.78;2.08;;;;;6.20;97585.00;;;;5050552;28;20056;-60
2023/04/15 00:31:14;;;;;;;7.80;2.90;;;;;6.20;97578.00;;;;5054500;28;20045;-60
2023/04/15 00:33:41;;;;;;;5.30;3.10;;;;;6.10;97585.00;;;;5054669;28;20044;-59
2023/04/15 00:36:07;;;;;;;7.53;3.10;;;;;6.20;97579.00;;;;5055712;28;20047;-59
2023/04/15 00:38:35;;;;;;;5.00;2.40;;;;;6.30;97580.00;;;;5055400;28;20494;-59
2023/04/15 00:41:02;;;;;;;6.03;2.67;;;;;6.30;97574.00;;;;5055634;28;20476;-59
2023/04/15 00:43:29;;;;;;;3.70;2.25;;;;;6.20;97580.00;;;;5054629;28;20051;-59
2023/04/15 00:45:57;;;;;;;8.00;2.95;;;;;6.20;97572.00;;;;5055710;28;20048;-59
2023/04/15 00:48:25;;;;;;;6.82;2.72;;;;;6.20;97569.00;;;;5054390;28;20053;-60
2023/04/15 00:50:52;;;;;;;4.63;2.40;;;;;6.20;97572.00;;;;5055286;28;20120;-60
2023/04/15 00:53:19;;;;;;;4.30;2.22;;;;;6.20;97567.00;;;;5054195;28;20049;-60
2023/04/15 00:55:45;;;;;;;4.80;2.05;;;;;6.10;97565.00;;;;5055140;28;20490;-60
2023/04/15 00:58:12;;;;;;;5.75;2.70;;;;;6.00;97564.00;;;;5055088;28;20103;-59
2023/04/15 01:00:41;;;;;;;4.78;2.08;;;;;6.00;97565.00;;;;5054757;28;20044;-59
2023/04/15 01:03:08;;;;;;;7.13;2.90;;;;;5.90;97558.00;;;;5054968;28;20040;-59
2023/04/15 01:05:35;;;;;;;4.90;2.83;;;;;5.90;97565.00;;;;5055094;28;20414;-59
2023/04/15 01:08:02;;;;;;;6.20;2.67;;;;;5.70;97561.00;;;;5054899;28;20045;-59
2023/04/15 01:10:30;;;;;;;3.55;2.22;;;;;5.70;97568.00;;;;5036966;28;20145;-59
2023/04/15 01:12:56;;;;;;;6.47;3.20;;;;;5.70;97549.00;;;;5053843;28;20594;-59
2023/04/15 01:15:24;;;;;;;5.93;2.80;;;;;5.60;97554.00;;;;5053869;28;20049;-59
2023/04/15 01:17:51;;;;;;;6.07;2.30;;;;;5.60;97552.00;;;;5054976;28;20049;-59
2023/04/15 01:20:19;;;;;;;4.22;2.30;;;;;5.50;97546.00;;;;5053600;28;20055;-59
2023/04/15 01:22:45;;;;;;;7.53;3.00;;;;;5.50;97556.00;;;;5053741;28;20060;-59
2023/04/15 01:25:17;;;;;;;3.47;2.40;;;;;5.50;97553.00;;;;5036871;28;20399;-59
2023/04/15 01:27:44;;;;;;;4.97;2.08;;;;;5.60;97555.00;;;;5053234;28;20525;-59
2023/04/15 01:30:11;;;;;;;5.10;2.70;;;;;5.70;97552.00;;;;5054186;28;20045;-59
2023/04/15 01:32:37;;;;;;;3.85;2.42;;;;;5.80;97551.00;;;;5053340;28;20536;-59
2023/04/15 01:35:04;;;;;;;4.47;2.65;;;;;5.70;97558.00;;;;5036735;28;20110;-61
2023/04/15 01:37:31;;;;;;;6.30;2.83;;;;;5.80;97556.00;;;;5054452;28;20045;-61
2023/04/15 01:39:58;;;;;;;3.22;2.15;;;;;5.70;97556.00;;;;5054829;28;20102;-59
2023/04/15 01:42:25;;;;;;;4.18;2.33;;;;;5.60;97558.00;;;;5052165;28;20047;-59
2023/04/15 01:44:52;;;;;;;3.67;2.33;;;;;5.40;97560.00;;;;5053047;28;20095;-60
2023/04/15 01:47:19;;;;;;;7.85;2.50;;;;;5.30;97554.00;;;;5054058;28;20559;-59
2023/04/15 01:49:46;;;;;;;3.65;2.50;;;;;5.30;97554.00;;;;5052685;28;20051;-60
2023/04/15 01:52:13;;;;;;;4.80;2.10;;;;;5.20;97559.00;;;;5054247;28;20103;-60
2023/04/15 01:54:39;;;;;;;3.50;2.50;;;;;5.20;97562.00;;;;5053081;28;20055;-61
2023/04/15 01:57:06;;;;;;;5.07;3.17;;;;;5.30;97560.00;;;;5052846;28;20484;-59
2023/04/15 01:59:33;;;;;;;5.38;2.30;;;;;5.40;97564.00;;;;5053078;28;20041;-60
2023/04/15 02:02:00;;;;;;;4.35;2.40;;;;;5.30;97556.00;;;;5053257;28;20053;-60
2023/04/15 02:04:26;;;;;;;4.18;2.42;;;;;5.20;97555.00;;;;5054584;28;20048;-60
2023/04/15 02:06:53;;;;;;;6.60;2.60;;;;;5.10;97560.00;;;;5054717;28;20053;-59
2023/04/15 02:09:20;;;;;;;5.55;2.78;;;;;5.00;97559.00;;;;5052834;28;20116;-60
2023/04/15 02:11:46;;;;;;;5.70;2.67;;;;;5.10;97549.00;;;;5054640;28;20563;-60
2023/04/15 02:14:13;;;;;;;5.30;2.95;;;;;5.10;97551.00;;;;5053138;28;20055;-60
2023/04/15 02:16:40;;;;;;;3.50;2.42;;;;;5.10;97551.00;;;;5052714;28;20048;-60
2023/04/15 02:19:06;;;;;;;3.25;2.00;;;;;5.20;97557.00;;;;5036192;28;20109;-59
2023/04/15 02:21:36;;;;;;;5.32;2.30;;;;;5.20;97566.00;;;;5054275;28;20033;-59
2023/04/15 02:24:03;;;;;;;5.25;2.30;;;;;5.10;97566.00;;;;5054274;28;20045;-60
2023/04/15 02:26:31;;;;;;;5.90;2.00;;;;;5.10;97569.00;;;;5053033;28;20068;-59
2023/04/15 02:28:58;;;;;;;5.25;2.40;;;;;5.20;97568.00;;;;5053749;28;20045;-59
2023/04/15 02:31:25;;;;;;;6.95;2.80;;;;;5.20;97563.00;;;;5053463;28;20065;-59
2023/04/15 02:33:52;;;;;;;7.38;2.45;;;;;5.00;97569.00;;;;5053256;28;20481;-58
2023/04/15 02:36:20;;;;;;;6.57;3.22;;;;;4.80;97563.00;;;;5052029;28;20048;-59
2023/04/15 02:38:46;;;;;;;3.15;2.30;;;;;4.80;97571.00;;;;5051611;28;20053;-59
2023/04/15 02:41:14;;;;;;;6.07;2.85;;;;;4.70;97561.00;;;;5052166;28;20390;-57
2023/04/15 02:43:43;;;;;;;7.38;2.53;;;;;4.60;97555.00;;;;5052661;28;20076;-58
2023/04/15 02:46:13;;;;;;;4.38;2.40;;;;;4.50;97566.00;;;;5052327;28;20048;-56
2023/04/15 02:48:40;;;;;;;6.13;2.35;;;;;4.50;97559.00;;;;5052855;28;20070;-59
2023/04/15 02:51:30;;;;;;;7.35;2.45;;;;;4.50;97563.00;;;;5051852;28;20135;-58
2023/04/15 02:53:57;;;;;;;4.50;2.25;;;;;4.50;97547.00;;;;5051764;28;20045;-58
2023/04/15 02:56:24;;;;;;;6.57;2.10;;;;;4.50;97558.00;;;;5051867;28;20055;-57
2023/04/15 02:58:50;;;;;;;3.45;2.65;;;;;4.50;97553.00;;;;5053605;28;20044;-58
2023/04/15 03:01:17;;;;;;;6.57;2.33;;;;;4.40;97556.00;;;;5052092;28;20037;-57
2023/04/15 03:03:43;;;;;;;4.65;2.30;;;;;4.30;97565.00;;;;5052461;28;20045;-59
2023/04/15 03:06:10;;;;;;;5.20;2.83;;;;;4.20;97573.00;;;;5053409;28;20145;-59
2023/04/15 03:08:37;;;;;;;11.40;4.95;;;;;4.20;97565.00;;;;5052834;28;20051;-58
2023/04/15 03:11:03;;;;;;;6.53;3.08;;;;;4.30;97568.00;;;;5053262;28;20098;-61
2023/04/15 03:13:31;;;;;;;3.90;2.10;;;;;4.30;97570.00;;;;5054893;28;20045;-58
2023/04/15 03:16:04;;;;;;;6.68;2.42;;;;;4.20;97568.00;;;;5054562;28;20399;-58
2023/04/15 03:18:31;;;;;;;3.85;2.38;;;;;4.20;97560.00;;;;5054543;28;20045;-59
2023/04/15 03:21:01;;;;;;;3.88;2.10;;;;;4.30;97568.00;;;;5054102;28;20140;-59
2023/04/15 03:23:30;;;;;;;4.10;2.50;;;;;4.50;97560.00;;;;5055961;28;20137;-58
2023/04/15 03:26:01;;;;;;;4.00;1.90;;;;;4.50;97565.00;;;;5055257;28;20056;-59
2023/04/15 03:28:29;;;;;;;3.08;2.15;;;;;4.60;97566.00;;;;5053285;28;20484;-59
2023/04/15 03:30:58;;;;;;;5.13;2.60;;;;;4.70;97565.00;;;;5051807;28;20056;-58
2023/04/15 03:33:24;;;;;;;7.53;2.65;;;;;4.80;97554.00;;;;5053138;28;20068;-58
2023/04/15 03:35:52;;;;;;;4.00;1.95;;;;;4.70;97563.00;;;;5051564;28;20045;-59
2023/04/15 03:38:18;;;;;;;9.63;2.28;;;;;4.70;97567.00;;;;5052778;28;20051;-59
2023/04/15 03:40:45;;;;;;;6.90;2.83;;;;;4.50;97555.00;;;;5052108;28;20087;-57
2023/04/15 03:43:12;;;;;;;5.22;2.70;;;;;4.30;97561.00;;;;5050929;28;20048;-57
2023/04/15 03:45:38;;;;;;;5.10;2.58;;;;;4.20;97557.00;;;;5052170;28;20461;-61
2023/04/15 03:48:05;;;;;;;4.22;2.40;;;;;4.10;97552.00;;;;5052105;28;20047;-61
2023/04/15 03:50:43;;;;;;;4.63;2.65;;;;;4.10;97550.00;;;;5051906;28;20060;-61
2023/04/15 03:53:09;;;;;;;5.05;2.22;;;;;4.10;97547.00;;;;5052055;28;20591;-60
2023/04/15 03:55:36;;;;;;;4.22;2.20;;;;;4.20;97558.00;;;;5051953;28;20041;-61
2023/04/15 03:58:03;;;;;;;8.60;2.20;;;;;4.40;97559.00;;;;5052037;28;20055;-61
2023/04/15 04:00:30;;;;;;;4.07;2.33;;;;;4.50;97553.00;;;;5051919;28;20131;-61
2023/04/15 04:02:56;;;;;;;4.70;2.42;;;;;4.50;97560.00;;;;5051990;28;20044;-61
2023/04/15 04:05:23;;;;;;;4.32;2.15;;;;;4.30;97550.00;;;;5053182;28;20103;-60
2023/04/15 04:07:49;;;;;;;4.03;2.00;;;;;4.20;97558.00;;;;5056274;28;20053;-59
2023/04/15 04:10:17;;;;;;;6.70;2.55;;;;;4.10;97564.00;;;;5055977;28;20102;-59
2023/04/15 04:12:44;;;;;;;8.43;3.13;;;;;4.20;97565.00;;;;5055898;28;20103;-58
2023/04/15 04:15:11;;;;;;;21.42;10.63;;;;;4.30;97578.00;;;;5055834;28;20048;-59
2023/04/15 04:17:37;;;;;;;5.20;2.40;;;;;4.20;97580.00;;;;5055950;28;20099;-59
2023/04/15 04:20:04;;;;;;;5.85;2.70;;;;;4.20;97573.00;;;;5054378;28;20055;-60
2023/04/15 04:22:36;;;;;;;6.25;2.88;;;;;4.10;97570.00;;;;5054478;28;20049;-59
2023/04/15 04:25:03;;;;;;;5.00;2.50;;;;;4.30;97560.00;;;;5055599;28;20045;-61
2023/04/15 04:27:30;;;;;;;5.07;2.47;;;;;4.40;97563.00;;;;5055482;28;20045;-60
2023/04/15 04:29:56;;;;;;;3.67;2.00;;;;;4.40;97563.00;;;;5055309;28;20047;-58
2023/04/15 04:32:23;;;;;;;3.92;2.25;;;;;4.50;97574.00;;;;5055406;28;20045;-59
2023/04/15 04:34:49;;;;;;;4.93;2.30;;;;;4.50;97572.00;;;;5055541;28;20041;-59
2023/04/15 04:37:16;;;;;;;4.05;2.20;;;;;4.50;97577.00;;;;5055571;28;20048;-59
2023/04/15 04:39:42;;;;;;;5.55;2.60;;;;;4.60;97579.00;;;;5055316;28;20064;-60
2023/04/15 04:42:09;;;;;;;4.47;2.10;;;;;4.70;97583.00;;;;5055166;28;20041;-60
2023/04/15 04:44:36;;;;;;;5.95;2.50;;;;;4.60;97576.00;;;;5055403;28;20045;-60
2023/04/15 04:47:02;;;;;;;6.43;2.85;;;;;4.50;97576.00;;;;5055378;28;20037;-59
2023/04/15 04:49:29;;;;;;;8.38;3.70;;;;;4.50;97582.00;;;;5054142;28;20067;-59
2023/04/15 04:51:56;;;;;;;6.82;3.25;;;;;4.40;97582.00;;;;5055369;28;20052;-60
2023/04/15 04:54:23;;;;;;;8.52;2.65;;;;;4.30;97577.00;;;;5055314;28;20049;-57
2023/04/15 04:56:49;;;;;;;4.68;3.00;;;;;4.20;97579.00;;;;5055307;28;20048;-59
2023/04/15 04:59:16;;;;;;;6.57;2.50;;;;;4.10;97574.00;;;;5054796;28;20052;-60
2023/04/15 05:01:45;;;;;;;6.57;3.08;;;;;4.00;97574.00;;;;5054983;28;20412;-61
2023/04/15 05:04:12;;;;;;;5.38;3.08;;;;;4.10;97577.00;;;;5055058;28;20366;-58
2023/04/15 05:06:38;;;;;;;5.65;2.60;;;;;4.30;97569.00;;;;5055012;28;20051;-60
2023/04/15 05:09:05;;;;;;;3.75;2.20;;;;;4.30;97574.00;;;;5054631;28;20045;-61
2023/04/15 05:11:32;;;;;;;4.85;2.83;;;;;4.20;97576.00;;;;5054833;28;20048;-61
2023/04/15 05:14:00;;;;;;;6.82;2.92;;;;;4.20;97583.00;;;;5054899;28;20099;-61
2023/04/15 05:16:27;;;;;;;4.53;2.35;;;;;4.30;97582.00;;;;5053866;28;20045;-62
2023/04/15 05:18:53;;;;;;;4.32;2.42;;;;;4.40;97571.00;;;;5054311;28;20051;-58
2023/04/15 05:21:20;;;;;;;3.90;2.40;;;;;4.40;97583.00;;;;5054584;28;20095;-59
2023/04/15 05:23:47;;;;;;;4.78;2.53;;;;;4.50;97577.00;;;;5054744;28;20075;-61
2023/04/15 05:26:13;;;;;;;4.20;2.50;;;;;4.50;97583.00;;;;5054447;28;20051;-61
2023/04/15 05:28:40;;;;;;;8.93;2.63;;;;;4.50;97576.00;;;;5054334;28;20079;-61
2023/04/15 05:31:06;;;;;;;6.22;3.45;;;;;4.60;97583.00;;;;5054711;28;20405;-60
2023/04/15 05:33:33;;;;;;;6.00;2.20;;;;;4.80;97582.00;;;;5054482;28;20127;-60
2023/04/15 05:36:00;;;;;;;3.50;2.03;;;;;4.80;97587.00;;;;5054489;28;20122;-60
2023/04/15 05:38:26;;;;;;;8.15;2.42;;;;;4.90;97589.00;;;;5053244;28;20418;-60
2023/04/15 05:40:53;;;;;;;4.63;2.30;;;;;5.00;97592.00;;;;5053962;28;20041;-60
2023/04/15 05:43:19;;;;;;;7.88;2.70;;;;;5.00;97598.00;;;;5053087;28;20052;-59
2023/04/15 05:45:46;;;;;;;6.38;2.53;;;;;5.10;97597.00;;;;5054264;28;20120;-60
2023/04/15 05:48:12;;;;;;;7.85;3.03;;;;;5.10;97601.00;;;;5054260;28;20052;-60
2023/04/15 05:50:40;;;;;;;5.95;2.35;;;;;5.00;97605.00;;;;5054166;28;20041;-59
2023/04/15 05:53:08;;;;;;;3.75;2.40;;;;;5.00;97599.00;;;;5054224;28;20041;-59
2023/04/15 05:55:34;;;;;;;4.60;2.00;;;;;5.20;97606.00;;;;5052954;28;20452;-60
2023/04/15 05:58:01;;;;;;;8.40;2.85;;;;;5.20;97602.00;;;;5054120;28;20047;-59
2023/04/15 06:00:27;;;;;;;5.47;2.80;;;;;5.20;97600.00;;;;5053832;28;20060;-59
2023/04/15 06:02:55;;;;;;;4.05;2.25;;;;;5.20;97611.00;;;;5054000;28;20086;-61
2023/04/15 06:05:22;;;;;;;5.65;2.13;;;;;5.10;97608.00;;;;5054003;28;20045;-59
2023/04/15 06:07:50;;;;;;;6.80;2.30;;;;;5.20;97611.00;;;;5054248;28;20440;-59
2023/04/15 06:10:17;;;;;;;5.97;2.40;;;;;5.10;97601.00;;;;5053826;28;20048;-59
2023/04/15 06:12:43;;;;;;;3.20;2.00;;;;;5.20;97617.00;;;;5053889;28;20505;-60
2023/04/15 06:15:10;;;;;;;8.45;2.88;;;;;5.30;97619.00;;;;5053827;28;20049;-60
2023/04/15 06:17:37;;;;;;;6.15;2.88;;;;;5.40;97630.00;;;;5054181;28;20044;-60
2023/04/15 06:20:04;;;;;;;5.38;2.50;;;;;5.60;97625.00;;;;5053805;28;20483;-59
2023/04/15 06:22:30;;;;;;;6.35;2.72;;;;;5.90;97620.00;;;;5053465;28;20041;-59
2023/04/15 06:24:57;;;;;;;4.20;2.15;;;;;6.10;97630.00;;;;5053800;28;20049;-59
2023/04/15 06:27:23;;;;;;;5.60;3.00;;;;;6.40;97632.00;;;;5052372;28;20387;-60
2023/04/15 06:29:50;;;;;;;5.32;3.22;;;;;6.60;97628.00;;;;5053380;28;20421;-60
2023/04/15 06:32:16;;;;;;;3.70;2.20;;;;;6.70;97634.00;;;;5053347;28;20044;-60
2023/04/15 06:34:43;;;;;;;9.27;3.60;;;;;6.80;97628.00;;;;5053401;28;20045;-60
2023/04/15 06:37:14;;;;;;;5.50;2.92;;;;;6.70;97627.00;;;;5053458;28;20087;-60
2023/04/15 06:39:41;;;;;;;5.88;2.90;;;;;6.80;97627.00;;;;5053081;28;20044;-61
2023/04/15 06:42:09;;;;;;;5.20;2.53;;;;;7.00;97624.00;;;;5053070;28;20060;-61
2023/04/15 06:44:36;;;;;;;5.93;3.00;;;;;7.20;97635.00;;;;5053207;28;20045;-61
2023/04/15 06:47:02;;;;;;;4.20;2.50;;;;;7.30;97637.00;;;;5053102;28;20049;-58
2023/04/15 06:49:29;;;;;;;8.68;3.63;;;;;7.60;97640.00;;;;5053291;28;20048;-60
2023/04/15 06:51:55;;;;;;;7.20;3.63;;;;;7.80;97636.00;;;;5053699;28;20037;-59
2023/04/15 06:54:22;;;;;;;6.00;3.13;;;;;8.00;97640.00;;;;5052347;28;20104;-58
2023/04/15 06:56:49;;;;;;;7.95;2.83;;;;;8.20;97644.00;;;;5053067;28;20052;-58
2023/04/15 06:59:15;;;;;;;3.92;2.63;;;;;8.40;97638.00;;;;5051652;28;20132;-59
2023/04/15 07:01:42;;;;;;;5.85;2.42;;;;;8.60;97637.00;;;;5052767;28;20037;-60
2023/04/15 07:04:09;;;;;;;4.32;2.33;;;;;8.80;97644.00;;;;5051483;28;20061;-58
2023/04/15 07:06:36;;;;;;;4.90;2.47;;;;;9.00;97650.00;;;;5051688;28;20494;-59
2023/04/15 07:09:04;;;;;;;7.53;3.05;;;;;9.10;97649.00;;;;5052569;28;20059;-59
2023/04/15 07:11:31;;;;;;;8.65;3.88;;;;;9.00;97646.00;;;;5052713;28;20048;-59
2023/04/15 07:13:57;;;;;;;9.55;3.92;;;;;8.80;97650.00;;;;5051397;28;20498;-59
2023/04/15 07:16:24;;;;;;;7.70;3.83;;;;;8.80;97637.00;;;;5052606;28;20490;-59
2023/04/15 07:18:54;;;;;;;6.72;3.22;;;;;9.00;97641.00;;;;5052482;28;20123;-59
2023/04/15 07:21:21;;;;;;;4.13;2.95;;;;;9.30;97647.00;;;;5053413;28;20049;-58
2023/04/15 07:23:47;;;;;;;6.68;3.30;;;;;9.40;97645.00;;;;5052455;28;20048;-59
2023/04/15 07:26:14;;;;;;;8.05;3.50;;;;;9.40;97638.00;;;;5053304;28;20667;-58
2023/04/15 07:28:40;;;;;;;6.63;3.30;;;;;9.50;97642.00;;;;5052957;28;20048;-58
2023/04/15 07:31:07;;;;;;;9.27;3.58;;;;;9.70;97635.00;;;;5052468;28;20417;-58
2023/04/15 07:33:34;;;;;;;6.40;4.28;;;;;9.90;97644.00;;;;5052789;28;20099;-59
2023/04/15 07:36:01;;;;;;;9.23;3.70;;;;;10.00;97641.00;;;;5052841;28;20049;-60
2023/04/15 07:38:28;;;;;;;9.50;3.55;;;;;10.20;97642.00;;;;5034541;28;20045;-59
2023/04/15 07:40:55;;;;;;;5.78;3.40;;;;;10.30;97642.00;;;;5051410;28;20049;-59
2023/04/15 07:43:22;;;;;;;8.13;3.63;;;;;10.40;97648.00;;;;5052078;28;20482;-60
2023/04/15 07:45:48;;;;;;;29.52;16.45;;;;;10.50;97641.00;;;;5050784;28;20049;-60
2023/04/15 07:48:15;;;;;;;8.80;5.20;;;;;10.60;97655.00;;;;5051999;28;20045;-59
2023/04/15 07:50:42;;;;;;;9.90;4.30;;;;;10.70;97650.00;;;;5051881;28;20048;-59
2023/04/15 07:53:08;;;;;;;4.70;3.30;;;;;11.00;97653.00;;;;5052048;28;20494;-58
2023/04/15 07:55:35;;;;;;;4.15;2.88;;;;;11.20;97645.00;;;;5051976;28;20047;-60
2023/04/15 07:58:02;;;;;;;9.55;4.68;;;;;11.50;97658.00;;;;5051826;28;20043;-62
2023/04/15 08:00:29;;;;;;;9.95;5.00;;;;;11.60;97655.00;;;;5051785;28;20041;-60
2023/04/15 08:02:56;;;;;;;4.93;3.22;;;;;11.60;97658.00;;;;5051804;28;20525;-60
2023/04/15 08:05:23;;;;;;;9.85;3.55;;;;;11.70;97652.00;;;;5051803;28;20103;-60
2023/04/15 08:07:49;;;;;;;8.43;4.05;;;;;11.90;97656.00;;;;5051869;28;20114;-60
2023/04/15 08:10:16;;;;;;;7.97;5.40;;;;;12.10;97664.00;;;;5051428;28;20114;-60
2023/04/15 08:12:43;;;;;;;5.70;4.10;;;;;12.20;97657.00;;;;5051604;28;20098;-60
2023/04/15 08:15:10;;;;;;;8.52;3.10;;;;;12.30;97658.00;;;;5051773;28;20045;-61
2023/04/15 08:17:36;;;;;;;7.70;2.92;;;;;12.50;97662.00;;;;5051839;28;20059;-61
2023/04/15 08:20:04;;;;;;;5.32;3.03;;;;;12.60;97659.00;;;;5051668;28;20045;-61
2023/04/15 08:22:31;;;;;;;6.63;2.97;;;;;12.70;97675.00;;;;5051698;28;20088;-61
2023/04/15 08:24:58;;;;;;;8.82;3.40;;;;;12.90;97667.00;;;;5051902;28;20036;-61
2023/04/15 08:27:24;;;;;;;6.82;3.13;;;;;13.00;97670.00;;;;5051505;28;20063;-61
2023/04/15 08:29:51;;;;;;;6.78;2.72;;;;;13.10;97674.00;;;;5051371;28;20071;-61
2023/04/15 08:32:18;;;;;;;6.07;2.60;;;;;13.20;97671.00;;;;5050384;28;20041;-61
2023/04/15 08:34:44;;;;;;;4.78;2.30;;;;;13.20;97672.00;;;;5050610;28;20060;-62
2023/04/15 08:37:11;;;;;;;5.97;3.25;;;;;13.40;97674.00;;;;5051596;28;20056;-62
2023/04/15 08:39:38;;;;;;;5.68;2.53;;;;;13.50;97677.00;;;;5051414;28;20068;-61
2023/04/15 08:42:15;;;;;;;7.38;5.07;;;;;13.70;97676.00;;;;5051405;28;20041;-62
2023/04/15 08:44:43;;;;;;;4.85;2.60;;;;;13.80;97687.00;;;;5051608;28;20053;-61
2023/04/15 08:47:12;;;;;;;4.82;2.95;;;;;13.90;97684.00;;;;5051615;28;20510;-62
2023/04/15 08:49:40;;;;;;;11.15;4.43;;;;;14.20;97682.00;;;;5050069;28;20301;-61
2023/04/15 08:52:08;;;;;;;5.13;3.08;;;;;14.30;97687.00;;;;5053528;28;20045;-61
2023/04/15 08:54:37;;;;;;;11.48;4.28;;;;;14.40;97687.00;;;;5053848;28;20052;-63
2023/04/15 08:57:05;;;;;;;6.18;2.80;;;;;14.70;97685.00;;;;5055343;28;20460;-62
2023/04/15 08:59:32;;;;;;;4.63;2.53;;;;;14.90;97697.00;;;;5053592;28;20060;-62
2023/04/15 09:01:58;;;;;;;5.65;2.38;;;;;15.00;97696.00;;;;5054960;28;20391;-62
2023/04/15 09:04:27;;;;;;;6.30;3.03;;;;;15.10;97694.00;;;;5054644;28;20126;-61
2023/04/15 09:06:53;;;;;;;6.05;2.60;;;;;15.10;97692.00;;;;5055950;28;20040;-62
2023/04/15 09:09:20;;;;;;;4.90;2.85;;;;;15.20;97694.00;;;;5074457;28;20041;-61
2023/04/15 09:11:48;;;;;;;3.15;2.03;;;;;15.40;97695.00;;;;5074743;28;20048;-62
2023/04/15 09:14:15;;;;;;;3.33;2.13;;;;;15.40;97710.00;;;;5073721;28;20119;-62
2023/04/15 09:17:00;;;;;;;3.78;2.20;;;;;15.50;97700.00;;;;5073539;28;20044;-62
2023/04/15 09:19:27;;;;;;;5.30;2.08;;;;;15.50;97719.00;;;;5074444;28;20059;-61
2023/04/15 09:21:57;;;;;;;5.45;2.20;;;;;15.60;97712.00;;;;5074493;28;20049;-61
2023/04/15 09:24:32;;;;;;;5.72;2.63;;;;;15.70;97711.00;;;;5073800;28;20044;-62
2023/04/15 09:26:59;;;;;;;5.63;2.53;;;;;15.80;97715.00;;;;5074840;28;20066;-62
2023/04/15 09:29:25;;;;;;;8.90;2.30;;;;;15.80;97720.00;;;;5074485;28;20094;-64
2023/04/15 09:31:52;;;;;;;5.32;2.15;;;;;15.80;97717.00;;;;5075002;28;20044;-61
2023/04/15 09:34:20;;;;;;;5.68;2.40;;;;;15.80;97717.00;;;;5074470;28;20119;-61
2023/04/15 09:36:46;;;;;;;5.20;1.88;;;;;15.80;97723.00;;;;5074422;28;20036;-61
2023/04/15 09:39:15;;;;;;;3.15;1.70;;;;;15.80;97719.00;;;;5074585;28;20045;-61
2023/04/15 09:41:43;;;;;;;3.63;1.95;;;;;15.90;97722.00;;;;5073521;28;20048;-63
2023/04/15 09:44:25;;;;;;;4.32;1.70;;;;;15.90;97726.00;;;;5074891;28;20052;-62
2023/04/15 09:46:52;;;;;;;6.00;2.20;;;;;16.00;97726.00;;;;5074397;28;20052;-61
2023/04/15 09:49:19;;;;;;;5.78;2.35;;;;;16.10;97719.00;;;;5074138;28;20119;-61
2023/04/15 09:51:46;;;;;;;4.85;2.45;;;;;16.30;97730.00;;;;5074197;28;20040;-61
2023/04/15 09:54:35;;;;;;;4.03;1.92;;;;;16.40;97730.00;;;;5074169;28;20485;-62
2023/04/15 09:57:07;;;;;;;5.28;2.25;;;;;16.40;97729.00;;;;5074478;28;20044;-65
2023/04/15 09:59:34;;;;;;;3.45;2.38;;;;;16.50;97742.00;;;;5073944;28;20044;-61
2023/04/15 10:02:04;;;;;;;4.35;2.30;;;;;16.60;97731.00;;;;5072623;28;20056;-62
2023/04/15 10:04:34;;;;;;;4.10;2.58;;;;;16.70;97744.00;;;;5072099;28;20563;-61
2023/04/15 10:07:03;;;;;;;4.53;1.92;;;;;16.70;97738.00;;;;5073932;28;20055;-61
2023/04/15 10:09:32;;;;;;;6.80;2.17;;;;;16.60;97737.00;;;;5073537;28;20040;-62
2023/04/15 10:11:59;;;;;;;5.50;1.58;;;;;16.60;97740.00;;;;5073722;28;20086;-63
2023/04/15 10:14:28;;;;;;;8.30;3.20;;;;;16.60;97743.00;;;;5073905;28;20132;-62
2023/04/15 10:16:55;;;;;;;4.70;1.40;;;;;16.60;97746.00;;;;5072652;28;20052;-61
2023/04/15 10:19:26;;;;;;;4.22;1.58;;;;;16.50;97742.00;;;;5073382;28;20075;-60
2023/04/15 10:21:54;;;;;;;4.35;1.83;;;;;16.50;97749.00;;;;5073419;28;20485;-61
2023/04/15 10:24:22;;;;;;;3.97;1.88;;;;;16.50;97746.00;;;;5073527;28;20051;-60
2023/04/15 10:26:50;;;;;;;3.05;1.70;;;;;16.40;97757.00;;;;5072048;28;20051;-61
2023/04/15 10:29:17;;;;;;;2.22;1.40;;;;;16.60;97760.00;;;;5073457;28;20040;-61
2023/04/15 10:31:44;;;;;;;9.77;2.22;;;;;16.70;97759.00;;;;5073453;28;20685;-61
2023/04/15 10:34:12;;;;;;;3.13;1.55;;;;;16.80;97768.00;;;;5071900;28;20040;-60
2023/04/15 10:36:38;;;;;;;5.25;2.15;;;;;16.80;97766.00;;;;5072694;28;20048;-60
2023/04/15 10:39:45;;;;;;;3.15;1.60;;;;;16.80;97767.00;;;;5073956;28;20157;-61
2023/04/15 10:42:18;;;;;;;5.80;2.25;;;;;16.70;97771.00;;;;5073297;28;20624;-61
2023/04/15 10:44:49;;;;;;;3.97;1.90;;;;;16.70;97785.00;;;;5073416;28;20098;-59
2023/04/15 10:47:18;;;;;;;6.60;2.10;;;;;16.70;97772.00;;;;5073353;28;20055;-62
2023/04/15 10:49:51;;;;;;;4.70;2.25;;;;;16.80;97787.00;;;;5072864;28;20494;-60
2023/04/15 10:52:22;;;;;;;4.70;2.00;;;;;16.80;97779.00;;;;5073182;28;20142;-61
2023/04/15 10:54:49;;;;;;;3.30;2.25;;;;;16.70;97779.00;;;;5073098;28;20279;-60
2023/04/15 10:57:22;;;;;;;4.30;2.42;;;;;16.80;97783.00;;;;5072995;28;20444;-61
2023/04/15 11:00:11;;;;;;;4.15;2.50;;;;;17.00;97792.00;;;;5072872;28;20041;-60
2023/04/15 11:02:42;;;;;;;6.75;2.75;;;;;16.80;97788.00;;;;5073508;28;20044;-61
2023/04/15 11:05:16;;;;;;;6.10;2.63;;;;;16.80;97795.00;;;;5074351;28;20058;-60
2023/04/15 11:07:47;;;;;;;9.82;6.20;;;;;16.80;97801.00;;;;5072690;28;20048;-60
2023/04/15 11:10:17;;;;;;;10.73;4.55;;;;;16.70;97802.00;;;;5072680;28;20119;-61
2023/04/15 11:12:44;;;;;;;6.38;2.88;;;;;16.80;97803.00;;;;5072812;28;20046;-61
2023/04/15 11:15:33;;;;;;;8.30;5.45;;;;;16.90;97809.00;;;;5072814;28;20218;-61
2023/04/15 11:18:11;;;;;;;9.00;4.40;;;;;16.80;97812.00;;;;5072743;28;20094;-60
2023/04/15 11:20:41;;;;;;;5.57;2.90;;;;;16.90;97808.00;;;;5072440;28;20497;-61
2023/04/15 11:23:08;;;;;;;7.82;4.22;;;;;17.10;97817.00;;;;5071345;28;20174;-60
2023/04/15 11:25:41;;;;;;;2.92;1.67;;;;;17.20;97812.00;;;;5073425;28;20409;-60
2023/04/15 11:28:09;;;;;;;3.70;1.73;;;;;17.30;97814.00;;;;5072329;28;20131;-60
2023/04/15 11:30:37;;;;;;;5.25;2.05;;;;;17.30;97819.00;;;;5072171;28;20055;-61
2023/04/15 11:33:09;;;;;;;5.00;2.40;;;;;17.30;97819.00;;;;5072819;28;20036;-60
2023/04/15 11:35:36;;;;;;;5.68;2.20;;;;;17.20;97831.00;;;;5072392;28;20040;-61
2023/04/15 11:38:04;;;;;;;7.10;2.15;;;;;17.00;97822.00;;;;5072503;28;20051;-60
2023/04/15 11:40:34;;;;;;;7.20;2.50;;;;;17.10;97829.00;;;;5072309;28;20439;-61
2023/04/15 11:43:09;;;;;;;5.05;2.47;;;;;17.30;97831.00;;;;5072691;28;20497;-60
2023/04/15 11:45:55;;;;;;;2.28;1.70;;;;;17.30;97837.00;;;;5072499;28;20048;-62
2023/04/15 11:48:26;;;;;;;5.65;1.95;;;;;17.50;97830.00;;;;5072748;28;20474;-61
2023/04/15 11:50:55;;;;;;;4.93;1.80;;;;;17.70;97834.00;;;;5072610;28;20040;-61
2023/04/15 11:53:22;;;;;;;5.25;2.22;;;;;17.60;97835.00;;;;5073228;28;20409;-61
2023/04/15 11:55:52;;;;;;;3.08;1.95;;;;;17.80;97818.00;;;;5072782;28;20045;-61
2023/04/15 11:58:24;;;;;;;3.60;1.73;;;;;17.80;97827.00;;;;5073417;28;20048;-61
2023/04/15 12:00:58;;;;;;;6.13;2.28;;;;;17.80;97837.00;;;;5073000;28;20075;-60
2023/04/15 12:03:27;;;;;;;7.45;2.58;;;;;17.80;97842.00;;;;5071636;28;20443;-61
2023/04/15 12:06:18;;;;;;;6.80;4.07;;;;;17.80;97852.00;;;;5074480;28;20308;-59
2023/04/15 12:08:51;;;;;;;5.28;2.70;;;;;17.70;97852.00;;;;5074155;28;20098;-61
2023/04/15 12:11:19;;;;;;;5.50;2.15;;;;;17.70;97848.00;;;;5074877;28;20052;-61
2023/04/15 12:13:47;;;;;;;4.55;2.05;;;;;17.70;97844.00;;;;5075440;28;20041;-61
2023/04/15 12:16:18;;;;;;;3.17;1.88;;;;;17.90;97850.00;;;;5074057;28;20047;-61
2023/04/15 12:18:50;;;;;;;3.53;1.75;;;;;18.00;97857.00;;;;5074053;28;20051;-60
2023/04/15 12:21:21;;;;;;;6.20;2.28;;;;;18.20;97862.00;;;;5074484;28;20052;-60
2023/04/15 12:23:52;;;;;;;3.13;2.10;;;;;18.30;97858.00;;;;5073293;28;20048;-61
2023/04/15 12:26:30;;;;;;;5.78;2.60;;;;;18.30;97860.00;;;;5073608;28;20044;-61
2023/04/15 12:29:02;;;;;;;4.47;1.58;;;;;18.40;97865.00;;;;5076091;28;20041;-61